GRR weather

Gerald R. Ford International Airport
Grand Rapids, Michigan, United States

Public forecast

Using degrees Fahrenheit for public forecast. Weather courtesy of forecast.io.

Current aviation weather report (METAR) for Gerald R. Ford International Airport

Retrieved 2020/07/16 15:53 UTC (51 minutes ago):

KGRR 161553Z 02006KT 10SM BKN011 BKN030 OVC060 23/21 A3001 RMK AO2 SLP157 T02330206

Aviation forecast (TAF) for Gerald R. Ford International Airport

Retrieved 2020/07/16 12:33 UTC (4 hours ago):

TAF KGRR 161129Z 1612/1712 05009KT P6SM FEW008 BKN027 OVC040 TEMPO 1612/1616 BKN015 FM162300 28006KT P6SM BKN250 FM170600 VRB03KT P6SM FEW250